Time;durP1;ratioP1;P1;durP2;ratioP2;P2;SDS_P1;SDS_P2;PMS_P1;PMS_P2;Temp;Humidity;BMP_temperature;BMP_pressure;BME280_temperature;BME280_humidity;BME280_pressure;Samples;Min_cycle;Max_cycle;Signal;HPM_P1;HPM_P2
2021/07/08 00:00:27;;;;;;;4.70;3.05;;;;;;;;;;5017957;28;20041;-62
2021/07/08 00:02:53;;;;;;;6.32;3.08;;;;;;;;;;5014776;28;20033;-62
2021/07/08 00:05:21;;;;;;;6.18;3.08;;;;;;;;;;5017886;28;20021;-62
2021/07/08 00:07:46;;;;;;;5.25;2.50;;;;;;;;;;5014073;28;20099;-62
2021/07/08 00:10:18;;;;;;;4.43;3.22;;;;;;;;;;5018599;28;20488;-62
2021/07/08 00:12:44;;;;;;;5.00;3.25;;;;;;;;;;5020701;28;20037;-62
2021/07/08 00:15:12;;;;;;;5.28;3.08;;;;;;;;;;5013893;28;20515;-62
2021/07/08 00:17:41;;;;;;;6.72;3.20;;;;;;;;;;5018085;28;20038;-61
2021/07/08 00:20:13;;;;;;;5.93;3.08;;;;;;;;;;5021036;28;20030;-61
2021/07/08 00:22:39;;;;;;;6.85;2.90;;;;;;;;;;5018382;28;20057;-62
2021/07/08 00:25:08;;;;;;;7.72;3.08;;;;;;;;;;5016570;28;20049;-61
2021/07/08 00:27:36;;;;;;;4.63;3.10;;;;;;;;;;5017417;28;20052;-62
2021/07/08 00:30:03;;;;;;;5.07;3.17;;;;;;;;;;5017890;28;20038;-61
2021/07/08 00:32:28;;;;;;;5.78;3.15;;;;;;;;;;5017212;28;20029;-62
2021/07/08 00:34:54;;;;;;;5.70;2.83;;;;;;;;;;5017484;28;20492;-62
2021/07/08 00:37:19;;;;;;;5.97;3.30;;;;;;;;;;5017467;28;20100;-61
2021/07/08 00:39:45;;;;;;;5.25;2.95;;;;;;;;;;5017147;28;20037;-61
2021/07/08 00:42:10;;;;;;;5.60;3.20;;;;;;;;;;5015996;28;20057;-61
2021/07/08 00:44:36;;;;;;;5.85;3.40;;;;;;;;;;5014537;28;20034;-61
2021/07/08 00:47:02;;;;;;;5.55;3.50;;;;;;;;;;5014983;28;20126;-61
2021/07/08 00:49:27;;;;;;;9.43;3.30;;;;;;;;;;5013705;28;20034;-61
2021/07/08 00:51:53;;;;;;;5.60;3.10;;;;;;;;;;5015904;28;20117;-61
2021/07/08 00:54:18;;;;;;;6.38;3.20;;;;;;;;;;5018968;28;20236;-62
2021/07/08 00:56:44;;;;;;;5.10;3.13;;;;;;;;;;5017070;28;20030;-61
2021/07/08 00:59:10;;;;;;;5.30;3.08;;;;;;;;;;5018772;28;20095;-61
2021/07/08 01:01:36;;;;;;;7.03;2.95;;;;;;;;;;4993060;28;20148;-62
2021/07/08 01:04:03;;;;;;;6.70;3.70;;;;;;;;;;4993139;28;20045;-62
2021/07/08 01:06:31;;;;;;;6.63;3.42;;;;;;;;;;4992206;28;20188;-63
2021/07/08 01:08:58;;;;;;;7.45;3.80;;;;;;;;;;4996199;28;20072;-63
2021/07/08 01:11:24;;;;;;;5.65;3.20;;;;;;;;;;4995600;28;20029;-63
2021/07/08 01:13:49;;;;;;;5.72;3.10;;;;;;;;;;5017969;23;20046;-74
2021/07/08 01:16:15;;;;;;;6.97;3.55;;;;;;;;;;4982670;28;20046;-74
2021/07/08 01:18:41;;;;;;;5.78;3.13;;;;;;;;;;4987376;28;20031;-73
2021/07/08 01:21:20;;;;;;;6.65;3.50;;;;;;;;;;4988560;28;20036;-73
2021/07/08 01:23:46;;;;;;;6.72;3.15;;;;;;;;;;4981318;28;20041;-73
2021/07/08 01:26:11;;;;;;;7.43;3.38;;;;;;;;;;4989073;28;20030;-76
2021/07/08 01:28:37;;;;;;;6.53;3.40;;;;;;;;;;4981282;28;20137;-74
2021/07/08 01:31:07;;;;;;;7.32;3.80;;;;;;;;;;4983547;28;20084;-74
2021/07/08 01:33:32;;;;;;;8.35;4.03;;;;;;;;;;4988947;28;20027;-74
2021/07/08 01:35:59;;;;;;;8.43;3.35;;;;;;;;;;4986098;28;20409;-74
2021/07/08 01:38:25;;;;;;;10.30;3.25;;;;;;;;;;4987762;28;20061;-74
2021/07/08 01:40:50;;;;;;;5.65;3.15;;;;;;;;;;4985134;28;20088;-74
2021/07/08 01:43:17;;;;;;;13.57;3.33;;;;;;;;;;4986469;28;20060;-74
2021/07/08 01:45:42;;;;;;;6.28;3.05;;;;;;;;;;4986241;28;20039;-75
2021/07/08 01:48:08;;;;;;;5.88;3.40;;;;;;;;;;4984510;28;20107;-74
2021/07/08 01:50:34;;;;;;;7.00;3.20;;;;;;;;;;4988008;28;20489;-73
2021/07/08 01:52:59;;;;;;;5.80;2.63;;;;;;;;;;4983684;28;20049;-74
2021/07/08 01:55:25;;;;;;;6.68;3.25;;;;;;;;;;4977926;28;20517;-74
2021/07/08 01:57:53;;;;;;;6.97;3.25;;;;;;;;;;4990389;28;20030;-74
2021/07/08 02:00:21;;;;;;;7.22;3.30;;;;;;;;;;4987319;28;20056;-74
2021/07/08 02:02:46;;;;;;;8.68;3.30;;;;;;;;;;4982055;28;20401;-74
2021/07/08 02:05:12;;;;;;;8.32;3.53;;;;;;;;;;4985848;28;20065;-73
2021/07/08 02:07:39;;;;;;;7.05;2.88;;;;;;;;;;4985988;28;20043;-74
2021/07/08 02:10:07;;;;;;;5.63;2.90;;;;;;;;;;4986426;28;20038;-73
2021/07/08 02:12:32;;;;;;;6.25;3.08;;;;;;;;;;4987137;28;20105;-73
2021/07/08 02:14:58;;;;;;;8.35;3.20;;;;;;;;;;4985574;28;20054;-74
2021/07/08 02:17:23;;;;;;;9.02;3.30;;;;;;;;;;4999978;28;20450;-73
2021/07/08 02:19:49;;;;;;;6.43;3.15;;;;;;;;;;4989417;28;20136;-73
2021/07/08 02:22:14;;;;;;;9.77;3.50;;;;;;;;;;4987339;28;20509;-73
2021/07/08 02:24:40;;;;;;;9.02;3.47;;;;;;;;;;4981626;28;20030;-74
2021/07/08 02:27:05;;;;;;;7.13;3.03;;;;;;;;;;4983977;28;20033;-74
2021/07/08 02:29:31;;;;;;;9.52;3.55;;;;;;;;;;4985487;28;20056;-72
2021/07/08 02:31:56;;;;;;;5.70;3.33;;;;;;;;;;4982437;28;20053;-74
2021/07/08 02:34:22;;;;;;;9.68;3.63;;;;;;;;;;4984007;28;20029;-74
2021/07/08 02:36:47;;;;;;;8.45;3.53;;;;;;;;;;4987644;28;20397;-74
2021/07/08 02:39:13;;;;;;;10.15;3.45;;;;;;;;;;4968905;28;20034;-74
2021/07/08 02:41:38;;;;;;;13.82;4.00;;;;;;;;;;4983724;28;20031;-75
2021/07/08 02:44:04;;;;;;;9.00;3.80;;;;;;;;;;4986085;28;20425;-75
2021/07/08 02:46:30;;;;;;;10.15;3.85;;;;;;;;;;4990374;28;20038;-74
2021/07/08 02:48:56;;;;;;;13.20;4.32;;;;;;;;;;4988839;28;20039;-75
2021/07/08 02:51:22;;;;;;;9.98;3.72;;;;;;;;;;4979804;28;20039;-74
2021/07/08 02:53:47;;;;;;;10.95;4.03;;;;;;;;;;4983411;28;20034;-74
2021/07/08 02:56:13;;;;;;;10.68;3.67;;;;;;;;;;4982469;28;20058;-74
2021/07/08 02:58:38;;;;;;;11.65;3.50;;;;;;;;;;4988964;28;20038;-74
2021/07/08 03:01:04;;;;;;;9.90;3.72;;;;;;;;;;4971574;28;20038;-73
2021/07/08 03:03:30;;;;;;;8.57;3.95;;;;;;;;;;4983175;28;20027;-74
2021/07/08 03:05:55;;;;;;;9.70;4.22;;;;;;;;;;4986876;28;20464;-73
2021/07/08 03:08:21;;;;;;;8.52;3.58;;;;;;;;;;4982673;28;20062;-73
2021/07/08 03:10:47;;;;;;;9.23;4.05;;;;;;;;;;4971560;28;20073;-74
2021/07/08 03:13:12;;;;;;;11.90;3.95;;;;;;;;;;4977954;28;20468;-73
2021/07/08 03:15:38;;;;;;;13.10;4.43;;;;;;;;;;4983489;28;20063;-73
2021/07/08 03:18:04;;;;;;;9.13;4.00;;;;;;;;;;4982460;28;20125;-74
2021/07/08 03:20:34;;;;;;;10.82;4.10;;;;;;;;;;4985800;28;20040;-74
2021/07/08 03:23:00;;;;;;;11.10;4.53;;;;;;;;;;4984275;28;20040;-74
2021/07/08 03:25:27;;;;;;;12.63;4.45;;;;;;;;;;4985679;28;20081;-73
2021/07/08 03:27:55;;;;;;;13.32;4.20;;;;;;;;;;4974104;28;20118;-74
2021/07/08 03:30:23;;;;;;;12.13;4.38;;;;;;;;;;4984126;28;20050;-73
2021/07/08 03:32:50;;;;;;;12.48;4.45;;;;;;;;;;4989057;28;20028;-73
2021/07/08 03:35:15;;;;;;;12.60;4.60;;;;;;;;;;4981877;28;20030;-73
2021/07/08 03:37:42;;;;;;;10.63;4.68;;;;;;;;;;4982095;28;20087;-74
2021/07/08 03:40:12;;;;;;;11.35;4.35;;;;;;;;;;4986368;28;20041;-74
2021/07/08 03:42:37;;;;;;;9.57;4.00;;;;;;;;;;4986683;28;20664;-75
2021/07/08 03:45:04;;;;;;;11.13;4.65;;;;;;;;;;4967579;28;20049;-73
2021/07/08 03:47:30;;;;;;;10.48;4.30;;;;;;;;;;4988035;28;20405;-73
2021/07/08 03:49:56;;;;;;;10.10;4.22;;;;;;;;;;4991588;28;20034;-73
2021/07/08 03:52:21;;;;;;;12.23;4.47;;;;;;;;;;4969439;28;20042;-73
2021/07/08 03:54:46;;;;;;;11.15;4.43;;;;;;;;;;4990307;28;20604;-73
2021/07/08 03:57:12;;;;;;;11.50;4.90;;;;;;;;;;4989130;28;20038;-74
2021/07/08 03:59:37;;;;;;;10.48;4.25;;;;;;;;;;4986329;28;20049;-74
2021/07/08 04:02:03;;;;;;;11.50;4.15;;;;;;;;;;4986200;28;20177;-74
2021/07/08 04:04:28;;;;;;;10.95;4.50;;;;;;;;;;4988418;28;20034;-73
2021/07/08 04:06:54;;;;;;;9.73;4.22;;;;;;;;;;5003282;28;20034;-74
2021/07/08 04:09:19;;;;;;;14.15;4.43;;;;;;;;;;4972178;28;20038;-74
2021/07/08 04:11:45;;;;;;;10.73;4.18;;;;;;;;;;4987046;28;20042;-73
2021/07/08 04:14:10;;;;;;;9.95;4.63;;;;;;;;;;4986750;28;20047;-74
2021/07/08 04:16:36;;;;;;;12.80;4.55;;;;;;;;;;4988628;28;20038;-74
2021/07/08 04:19:03;;;;;;;8.95;4.20;;;;;;;;;;4984190;28;20800;-74
2021/07/08 04:21:29;;;;;;;10.68;4.47;;;;;;;;;;4988486;28;20052;-74
2021/07/08 04:23:54;;;;;;;13.90;4.45;;;;;;;;;;4989155;28;20817;-74
2021/07/08 04:26:20;;;;;;;10.13;4.35;;;;;;;;;;4987276;28;20509;-74
2021/07/08 04:28:45;;;;;;;12.95;4.38;;;;;;;;;;4984472;28;20073;-74
2021/07/08 04:31:15;;;;;;;12.18;4.50;;;;;;;;;;4984107;28;20561;-74
2021/07/08 04:33:40;;;;;;;13.38;4.50;;;;;;;;;;4986861;28;20093;-75
2021/07/08 04:36:06;;;;;;;10.15;3.83;;;;;;;;;;4982241;28;20042;-75
2021/07/08 04:38:31;;;;;;;10.27;4.30;;;;;;;;;;4986225;28;20189;-77
2021/07/08 04:40:57;;;;;;;9.00;4.32;;;;;;;;;;4986013;28;20106;-77
2021/07/08 04:43:23;;;;;;;10.30;4.25;;;;;;;;;;4990927;28;20105;-75
2021/07/08 04:45:51;;;;;;;15.18;4.78;;;;;;;;;;4987139;28;20038;-77
2021/07/08 04:48:17;;;;;;;11.15;4.63;;;;;;;;;;4984298;28;20045;-75
2021/07/08 04:50:43;;;;;;;13.35;5.28;;;;;;;;;;4985671;28;20053;-75
2021/07/08 04:53:08;;;;;;;10.57;4.82;;;;;;;;;;4986019;28;20394;-77
2021/07/08 04:55:34;;;;;;;14.93;5.38;;;;;;;;;;4985884;28;20041;-76
2021/07/08 04:57:59;;;;;;;11.57;4.78;;;;;;;;;;4971250;28;20062;-75
2021/07/08 05:00:25;;;;;;;15.27;4.95;;;;;;;;;;4985465;28;20026;-75
2021/07/08 05:02:52;;;;;;;11.55;5.03;;;;;;;;;;4983094;28;20109;-73
2021/07/08 05:05:19;;;;;;;12.43;4.82;;;;;;;;;;4987604;28;20057;-74
2021/07/08 05:07:50;;;;;;;15.30;4.82;;;;;;;;;;4986779;28;20018;-73
2021/07/08 05:10:16;;;;;;;11.43;5.00;;;;;;;;;;5004116;28;20031;-73
2021/07/08 05:12:43;;;;;;;13.00;5.18;;;;;;;;;;4986387;28;20034;-73
2021/07/08 05:15:10;;;;;;;11.23;4.22;;;;;;;;;;5004778;28;20126;-73
2021/07/08 05:17:36;;;;;;;11.90;5.22;;;;;;;;;;5001512;28;20027;-73
2021/07/08 05:20:03;;;;;;;14.20;4.78;;;;;;;;;;4984967;28;20053;-73
2021/07/08 05:22:34;;;;;;;9.65;4.65;;;;;;;;;;4981624;28;20505;-73
2021/07/08 05:25:00;;;;;;;11.25;4.85;;;;;;;;;;4986192;28;20141;-73
2021/07/08 05:27:27;;;;;;;11.55;5.40;;;;;;;;;;4982291;28;20409;-74
2021/07/08 05:29:52;;;;;;;12.38;5.40;;;;;;;;;;5003900;28;20038;-74
2021/07/08 05:32:18;;;;;;;12.20;5.18;;;;;;;;;;4985624;28;20034;-73
2021/07/08 05:34:44;;;;;;;15.18;6.18;;;;;;;;;;4987679;28;20034;-74
2021/07/08 05:37:10;;;;;;;17.17;6.00;;;;;;;;;;4978691;28;20080;-74
2021/07/08 05:39:36;;;;;;;10.63;5.18;;;;;;;;;;4987196;28;20087;-74
2021/07/08 05:42:02;;;;;;;13.20;5.75;;;;;;;;;;4983631;28;20037;-75
2021/07/08 05:44:28;;;;;;;14.23;5.93;;;;;;;;;;4988748;28;20045;-75
2021/07/08 05:46:54;;;;;;;14.18;6.25;;;;;;;;;;4984391;28;20402;-74
2021/07/08 05:49:19;;;;;;;19.40;6.60;;;;;;;;;;4987165;28;20030;-74
2021/07/08 05:51:45;;;;;;;16.73;6.25;;;;;;;;;;4968590;28;20497;-73
2021/07/08 05:54:10;;;;;;;13.52;5.82;;;;;;;;;;4987284;28;20038;-73
2021/07/08 05:56:36;;;;;;;15.82;5.82;;;;;;;;;;4986692;28;20034;-73
2021/07/08 05:59:01;;;;;;;14.52;6.63;;;;;;;;;;4986321;28;20039;-73
2021/07/08 06:01:27;;;;;;;15.80;6.20;;;;;;;;;;4984458;28;20027;-74
2021/07/08 06:03:52;;;;;;;15.55;6.07;;;;;;;;;;4986455;28;20125;-73
2021/07/08 06:06:18;;;;;;;14.32;5.93;;;;;;;;;;4981937;28;20039;-73
2021/07/08 06:08:45;;;;;;;16.08;6.15;;;;;;;;;;4985075;28;20031;-73
2021/07/08 06:11:12;;;;;;;12.15;5.47;;;;;;;;;;4983201;28;20036;-73
2021/07/08 06:13:37;;;;;;;11.05;5.30;;;;;;;;;;4989334;28;20030;-74
2021/07/08 06:16:04;;;;;;;13.18;5.90;;;;;;;;;;4978953;28;20047;-73
2021/07/08 06:18:29;;;;;;;11.55;5.53;;;;;;;;;;4983897;28;20078;-75
2021/07/08 06:20:55;;;;;;;11.85;5.53;;;;;;;;;;4989725;28;20057;-75
2021/07/08 06:23:21;;;;;;;13.15;6.32;;;;;;;;;;4994901;28;20474;-75
2021/07/08 06:25:48;;;;;;;11.98;5.28;;;;;;;;;;4985633;28;20042;-74
2021/07/08 06:28:14;;;;;;;11.20;5.35;;;;;;;;;;4979661;28;20028;-74
2021/07/08 06:30:40;;;;;;;10.23;5.03;;;;;;;;;;4988155;28;20026;-74
2021/07/08 06:33:06;;;;;;;14.35;5.43;;;;;;;;;;4987746;28;20026;-74
2021/07/08 06:35:31;;;;;;;13.20;5.63;;;;;;;;;;4986258;28;20532;-74
2021/07/08 06:37:57;;;;;;;9.07;4.80;;;;;;;;;;4988805;28;20034;-74
2021/07/08 06:40:23;;;;;;;15.27;5.75;;;;;;;;;;4986907;28;20042;-74
2021/07/08 06:42:49;;;;;;;13.35;5.45;;;;;;;;;;4983302;28;20589;-74
2021/07/08 06:45:15;;;;;;;10.13;4.88;;;;;;;;;;4962574;28;20110;-74
2021/07/08 06:47:47;;;;;;;10.45;5.70;;;;;;;;;;4987751;28;20018;-74
2021/07/08 06:50:14;;;;;;;13.05;5.18;;;;;;;;;;4978201;28;20026;-75
2021/07/08 06:52:40;;;;;;;10.90;5.28;;;;;;;;;;4996599;28;20030;-74
2021/07/08 06:55:07;;;;;;;13.70;5.28;;;;;;;;;;4982915;28;22405;-73
2021/07/08 06:57:33;;;;;;;15.25;5.30;;;;;;;;;;4983896;28;20059;-74
2021/07/08 06:59:58;;;;;;;9.23;4.07;;;;;;;;;;4981012;28;20144;-75
2021/07/08 07:02:24;;;;;;;7.78;3.92;;;;;;;;;;4986793;28;20030;-74
2021/07/08 07:04:49;;;;;;;7.97;3.65;;;;;;;;;;4983712;28;20506;-75
2021/07/08 07:07:15;;;;;;;5.10;2.30;;;;;;;;;;4983634;28;20414;-74
2021/07/08 07:09:44;;;;;;;6.43;2.17;;;;;;;;;;4984841;28;20034;-74
2021/07/08 07:12:10;;;;;;;3.70;2.10;;;;;;;;;;4986323;28;20042;-74
2021/07/08 07:14:36;;;;;;;6.00;3.38;;;;;;;;;;4985340;28;20046;-74
2021/07/08 07:17:02;;;;;;;2.90;1.77;;;;;;;;;;4984252;28;20030;-73
2021/07/08 07:19:27;;;;;;;3.35;1.88;;;;;;;;;;4980687;28;20030;-73
2021/07/08 07:21:54;;;;;;;3.55;1.80;;;;;;;;;;4989378;28;20042;-73
2021/07/08 07:24:21;;;;;;;4.38;1.90;;;;;;;;;;4988514;28;20034;-73
2021/07/08 07:26:47;;;;;;;4.07;1.75;;;;;;;;;;4967664;28;20057;-74
2021/07/08 07:29:12;;;;;;;4.35;2.30;;;;;;;;;;4951877;28;20038;-73
2021/07/08 07:31:38;;;;;;;3.33;1.85;;;;;;;;;;4987096;28;20081;-73
2021/07/08 07:34:03;;;;;;;2.40;1.60;;;;;;;;;;4987762;28;20497;-73
2021/07/08 07:36:29;;;;;;;4.43;1.60;;;;;;;;;;4982596;28;20026;-73
2021/07/08 07:38:54;;;;;;;5.18;0.90;;;;;;;;;;4985969;28;20027;-73
2021/07/08 07:41:20;;;;;;;0.73;0.60;;;;;;;;;;4983731;28;20034;-73
2021/07/08 07:43:47;;;;;;;1.25;0.90;;;;;;;;;;4986836;28;20042;-73
2021/07/08 07:46:13;;;;;;;2.50;0.80;;;;;;;;;;4981328;28;20044;-73
2021/07/08 07:48:39;;;;;;;1.77;0.60;;;;;;;;;;4990479;28;20528;-73
2021/07/08 07:51:04;;;;;;;1.35;0.85;;;;;;;;;;4990547;28;20026;-73
2021/07/08 07:53:30;;;;;;;5.53;0.82;;;;;;;;;;4987456;28;20125;-73
2021/07/08 07:55:55;;;;;;;1.42;1.00;;;;;;;;;;4985969;28;20493;-74
2021/07/08 07:58:22;;;;;;;2.42;0.77;;;;;;;;;;4988001;28;20034;-74
2021/07/08 08:00:48;;;;;;;1.00;0.60;;;;;;;;;;4986809;28;20486;-74
2021/07/08 08:03:14;;;;;;;1.55;0.65;;;;;;;;;;4988385;28;20044;-74
2021/07/08 08:05:41;;;;;;;3.33;1.00;;;;;;;;;;4989084;28;20449;-74
2021/07/08 08:10:52;;;;;;;1.60;0.93;;;;;;;;;;4984545;28;20556;-73
2021/07/08 08:13:19;;;;;;;2.45;1.00;;;;;;;;;;4986471;28;20037;-74
2021/07/08 08:15:45;;;;;;;3.33;1.50;;;;;;;;;;4998787;28;20458;-73
2021/07/08 08:18:11;;;;;;;7.13;1.40;;;;;;;;;;4985822;28;20031;-73
2021/07/08 08:20:37;;;;;;;3.63;1.70;;;;;;;;;;4976931;28;20433;-73
2021/07/08 08:23:02;;;;;;;5.43;1.60;;;;;;;;;;4986216;28;20748;-73
2021/07/08 08:25:28;;;;;;;7.10;1.70;;;;;;;;;;4975627;28;20080;-74
2021/07/08 08:27:54;;;;;;;5.25;1.85;;;;;;;;;;4981877;28;20034;-73
2021/07/08 08:30:19;;;;;;;4.63;1.50;;;;;;;;;;4971212;28;20030;-73
2021/07/08 08:32:45;;;;;;;9.40;1.85;;;;;;;;;;4987283;28;20067;-76
2021/07/08 08:35:11;;;;;;;6.22;1.50;;;;;;;;;;5006785;28;20084;-75
2021/07/08 08:37:37;;;;;;;5.50;1.73;;;;;;;;;;4990454;28;20049;-74
2021/07/08 08:40:04;;;;;;;4.13;1.63;;;;;;;;;;4989489;28;20426;-74
2021/07/08 08:42:31;;;;;;;3.08;1.85;;;;;;;;;;4990492;28;20444;-74
2021/07/08 08:44:56;;;;;;;6.57;2.15;;;;;;;;;;4981250;28;20045;-73
2021/07/08 08:47:23;;;;;;;5.22;2.13;;;;;;;;;;4993577;28;20551;-74
2021/07/08 08:49:53;;;;;;;4.13;2.30;;;;;;;;;;4992314;28;20010;-74
2021/07/08 08:52:19;;;;;;;3.97;2.08;;;;;;;;;;4991816;28;20030;-74
2021/07/08 08:54:44;;;;;;;6.22;2.20;;;;;;;;;;4998097;28;20057;-74
2021/07/08 08:57:10;;;;;;;3.35;1.55;;;;;;;;;;4981583;28;20073;-74
2021/07/08 08:59:36;;;;;;;2.65;1.55;;;;;;;;;;4986950;28;20473;-74
2021/07/08 09:02:18;;;;;;;4.47;1.92;;;;;;;;;;4990704;28;20035;-74
2021/07/08 09:04:50;;;;;;;2.55;1.45;;;;;;;;;;4988252;28;20085;-73
2021/07/08 09:07:34;;;;;;;3.15;2.03;;;;;;;;;;4990069;28;20038;-74
2021/07/08 09:10:11;;;;;;;4.18;2.10;;;;;;;;;;4988632;28;20065;-75
2021/07/08 09:12:37;;;;;;;2.85;1.85;;;;;;;;;;4982778;28;20034;-75
2021/07/08 09:15:34;;;;;;;2.53;1.85;;;;;;;;;;4986086;28;20047;-75
2021/07/08 09:18:00;;;;;;;6.00;2.25;;;;;;;;;;4941437;28;20132;-75
2021/07/08 09:20:27;;;;;;;5.47;2.65;;;;;;;;;;4986197;28;20113;-74
2021/07/08 09:23:07;;;;;;;4.57;2.28;;;;;;;;;;4983820;28;20088;-74
2021/07/08 09:25:32;;;;;;;6.47;2.75;;;;;;;;;;4985782;28;20035;-75
2021/07/08 09:28:22;;;;;;;9.02;2.55;;;;;;;;;;4987469;28;20453;-76
2021/07/08 09:31:00;;;;;;;2.92;1.70;;;;;;;;;;4986515;28;20038;-75
2021/07/08 09:33:40;;;;;;;4.28;2.10;;;;;;;;;;4989273;28;20105;-75
2021/07/08 09:36:16;;;;;;;5.57;2.10;;;;;;;;;;4987746;28;20042;-75
2021/07/08 09:38:44;;;;;;;5.28;2.25;;;;;;;;;;4983627;28;20038;-75
2021/07/08 09:41:22;;;;;;;3.58;1.92;;;;;;;;;;4984037;28;20030;-75
2021/07/08 09:43:48;;;;;;;3.10;1.90;;;;;;;;;;4988715;28;20018;-79
2021/07/08 09:46:15;;;;;;;3.28;1.77;;;;;;;;;;4973138;28;20038;-79
2021/07/08 09:49:00;;;;;;;3.58;1.70;;;;;;;;;;4988638;28;20032;-80
2021/07/08 09:51:30;;;;;;;7.13;2.97;;;;;;;;;;4988814;28;20038;-80
2021/07/08 09:54:05;;;;;;;3.58;2.00;;;;;;;;;;4989562;28;20026;-79
2021/07/08 09:56:45;;;;;;;3.17;2.13;;;;;;;;;;4989269;28;20034;-79
2021/07/08 09:59:16;;;;;;;8.57;2.35;;;;;;;;;;4989275;28;20041;-79
2021/07/08 10:01:44;;;;;;;3.47;1.80;;;;;;;;;;4984956;28;20764;-79
2021/07/08 10:04:10;;;;;;;3.25;1.73;;;;;;;;;;4988085;28;20038;-80
2021/07/08 10:06:37;;;;;;;2.83;1.67;;;;;;;;;;4989008;28;20584;-79
2021/07/08 10:09:05;;;;;;;4.47;1.70;;;;;;;;;;4983463;28;20041;-80
2021/07/08 10:11:30;;;;;;;6.25;1.92;;;;;;;;;;5005825;28;20042;-79
2021/07/08 10:13:59;;;;;;;3.03;1.80;;;;;;;;;;4983080;28;20049;-74
2021/07/08 10:16:26;;;;;;;3.58;2.08;;;;;;;;;;4968950;28;20363;-73
2021/07/08 10:18:55;;;;;;;7.40;2.30;;;;;;;;;;4989681;28;20113;-73
2021/07/08 10:21:21;;;;;;;4.82;1.88;;;;;;;;;;4988269;28;20018;-76
2021/07/08 10:23:46;;;;;;;7.07;1.90;;;;;;;;;;4987734;28;20121;-76
2021/07/08 10:26:12;;;;;;;3.40;2.03;;;;;;;;;;4988832;28;20113;-76
2021/07/08 10:28:46;;;;;;;3.60;1.52;;;;;;;;;;5002824;28;20018;-76
2021/07/08 10:31:14;;;;;;;2.75;1.40;;;;;;;;;;4988430;28;20050;-76
2021/07/08 10:33:40;;;;;;;2.28;1.20;;;;;;;;;;4984763;28;20022;-76
2021/07/08 10:36:05;;;;;;;3.75;1.35;;;;;;;;;;4985630;28;20060;-76
2021/07/08 10:38:31;;;;;;;2.80;1.42;;;;;;;;;;4988758;28;20109;-76
2021/07/08 10:40:59;;;;;;;5.22;1.90;;;;;;;;;;4988561;28;20133;-76
2021/07/08 10:43:44;;;;;;;4.38;1.75;;;;;;;;;;4972465;28;20038;-74
2021/07/08 10:46:12;;;;;;;4.93;2.20;;;;;;;;;;4987142;28;20042;-75
2021/07/08 10:48:48;;;;;;;3.53;1.98;;;;;;;;;;4985630;28;20058;-75
2021/07/08 10:51:25;;;;;;;3.72;1.98;;;;;;;;;;4988759;28;20081;-74
2021/07/08 10:53:51;;;;;;;2.63;1.90;;;;;;;;;;4988505;28;20029;-74
2021/07/08 10:56:22;;;;;;;5.20;2.38;;;;;;;;;;4970903;28;20050;-74
2021/07/08 10:58:55;;;;;;;4.47;1.55;;;;;;;;;;4987581;28;20732;-74
2021/07/08 11:01:23;;;;;;;3.28;2.03;;;;;;;;;;4984880;28;20521;-75
2021/07/08 11:03:50;;;;;;;2.85;1.63;;;;;;;;;;4986247;28;20034;-74
2021/07/08 11:06:23;;;;;;;4.82;1.90;;;;;;;;;;4987950;28;20053;-74
2021/07/08 11:08:51;;;;;;;3.15;1.50;;;;;;;;;;4989675;28;20430;-75
2021/07/08 11:11:23;;;;;;;4.78;1.70;;;;;;;;;;4985114;28;20034;-74
2021/07/08 11:13:56;;;;;;;3.28;1.60;;;;;;;;;;4989418;28;20022;-73
2021/07/08 11:16:46;;;;;;;5.30;1.98;;;;;;;;;;4988355;28;20054;-73
2021/07/08 11:19:21;;;;;;;2.85;2.00;;;;;;;;;;4987475;28;20041;-74
2021/07/08 11:21:53;;;;;;;6.10;2.08;;;;;;;;;;4984608;28;20104;-75
2021/07/08 11:24:27;;;;;;;6.85;2.20;;;;;;;;;;4987583;28;20512;-75
2021/07/08 11:26:59;;;;;;;3.80;2.08;;;;;;;;;;4979851;28;20038;-75
2021/07/08 11:29:40;;;;;;;5.10;2.40;;;;;;;;;;4989156;28;20037;-74
2021/07/08 11:32:36;;;;;;;3.05;2.40;;;;;;;;;;4984116;28;20064;-75
2021/07/08 11:35:04;;;;;;;3.55;2.20;;;;;;;;;;4979572;28;20065;-74
2021/07/08 11:37:39;;;;;;;4.55;2.08;;;;;;;;;;5001841;28;20774;-75
2021/07/08 11:40:18;;;;;;;3.65;1.90;;;;;;;;;;4987008;28;20147;-75
2021/07/08 11:42:46;;;;;;;3.15;1.67;;;;;;;;;;4970425;28;20030;-75
2021/07/08 11:45:24;;;;;;;2.47;1.80;;;;;;;;;;4985659;28;20030;-75
2021/07/08 11:47:51;;;;;;;7.53;1.80;;;;;;;;;;4988558;28;20477;-75
2021/07/08 11:50:19;;;;;;;5.05;1.73;;;;;;;;;;4987149;28;20031;-76
2021/07/08 11:52:46;;;;;;;3.20;1.30;;;;;;;;;;4988971;28;20117;-76
2021/07/08 11:55:12;;;;;;;2.17;1.35;;;;;;;;;;4981212;28;20035;-74
2021/07/08 11:57:54;;;;;;;2.42;1.63;;;;;;;;;;4980570;28;20486;-74
2021/07/08 12:00:47;;;;;;;3.97;1.58;;;;;;;;;;4986234;28;20035;-73
2021/07/08 12:03:22;;;;;;;4.53;1.80;;;;;;;;;;4981844;28;20137;-75
2021/07/08 12:05:56;;;;;;;6.38;2.33;;;;;;;;;;4988367;28;20172;-73
2021/07/08 12:08:26;;;;;;;3.83;2.47;;;;;;;;;;4987062;28;20054;-73
2021/07/08 12:11:07;;;;;;;2.60;1.80;;;;;;;;;;4987141;28;20108;-73
2021/07/08 12:13:53;;;;;;;3.25;1.90;;;;;;;;;;4985457;28;20415;-73
2021/07/08 12:16:40;;;;;;;2.95;1.90;;;;;;;;;;5000078;28;20073;-73
2021/07/08 12:19:30;;;;;;;4.70;1.63;;;;;;;;;;4986076;28;20042;-74
2021/07/08 12:22:05;;;;;;;4.22;1.90;;;;;;;;;;4986785;28;20053;-74
2021/07/08 12:24:33;;;;;;;3.75;1.42;;;;;;;;;;4988893;28;20030;-74
2021/07/08 12:27:06;;;;;;;1.42;1.33;;;;;;;;;;4996514;28;20042;-75
2021/07/08 12:29:32;;;;;;;3.30;2.08;;;;;;;;;;4988521;28;20026;-74
2021/07/08 12:32:20;;;;;;;2.70;1.50;;;;;;;;;;4985751;28;20030;-74
2021/07/08 12:34:51;;;;;;;2.90;1.50;;;;;;;;;;4987495;28;20038;-74
2021/07/08 12:37:21;;;;;;;2.63;1.92;;;;;;;;;;4988412;28;20037;-74
2021/07/08 12:40:00;;;;;;;3.78;2.28;;;;;;;;;;4991313;28;20497;-73
2021/07/08 12:42:29;;;;;;;4.20;2.03;;;;;;;;;;4987669;28;20058;-74
2021/07/08 12:44:59;;;;;;;3.22;2.10;;;;;;;;;;4991642;28;20038;-73
2021/07/08 12:47:25;;;;;;;2.90;1.95;;;;;;;;;;4989958;28;20023;-73
2021/07/08 12:49:52;;;;;;;3.47;1.90;;;;;;;;;;5006337;28;20049;-73
2021/07/08 12:52:18;;;;;;;4.05;2.00;;;;;;;;;;4991444;28;20121;-73
2021/07/08 12:54:44;;;;;;;2.65;2.03;;;;;;;;;;4973231;28;20116;-75
2021/07/08 12:57:15;;;;;;;2.78;2.00;;;;;;;;;;4986249;28;20034;-74
2021/07/08 12:59:58;;;;;;;3.13;1.90;;;;;;;;;;4989035;28;20030;-74
2021/07/08 13:02:32;;;;;;;7.97;2.05;;;;;;;;;;4995268;28;20100;-75
2021/07/08 13:05:08;;;;;;;4.35;2.15;;;;;;;;;;4989183;28;20110;-74
2021/07/08 13:07:47;;;;;;;5.70;2.05;;;;;;;;;;4986432;28;20030;-74
2021/07/08 13:10:13;;;;;;;3.85;2.10;;;;;;;;;;4989665;28;20409;-75
2021/07/08 13:12:39;;;;;;;3.55;2.05;;;;;;;;;;4990720;28;20050;-74
2021/07/08 13:15:20;;;;;;;3.75;2.10;;;;;;;;;;4990490;28;20070;-74
2021/07/08 13:17:46;;;;;;;4.80;1.92;;;;;;;;;;4987840;28;20026;-74
2021/07/08 13:20:12;;;;;;;5.03;1.75;;;;;;;;;;4989945;28;20089;-75
2021/07/08 13:22:41;;;;;;;3.95;1.60;;;;;;;;;;4982085;28;20446;-74
2021/07/08 13:25:21;;;;;;;2.22;1.98;;;;;;;;;;4987640;28;20022;-75
2021/07/08 13:27:49;;;;;;;4.32;2.15;;;;;;;;;;4986091;28;20034;-74
2021/07/08 13:30:29;;;;;;;2.53;1.90;;;;;;;;;;4984765;28;20057;-74
2021/07/08 13:33:09;;;;;;;4.63;2.08;;;;;;;;;;4987191;28;20054;-74
2021/07/08 13:35:39;;;;;;;3.65;1.98;;;;;;;;;;4989271;28;20544;-74
2021/07/08 13:38:37;;;;;;;3.17;1.77;;;;;;;;;;4986266;28;20034;-74
2021/07/08 13:41:08;;;;;;;2.67;2.00;;;;;;;;;;4998732;28;20359;-74
2021/07/08 13:43:43;;;;;;;5.03;2.08;;;;;;;;;;4988231;28;20033;-74
2021/07/08 13:46:13;;;;;;;3.70;1.90;;;;;;;;;;4987220;28;20505;-74
2021/07/08 13:48:39;;;;;;;3.28;1.95;;;;;;;;;;4986595;28;20029;-74
2021/07/08 13:51:06;;;;;;;6.18;1.95;;;;;;;;;;4986692;28;20113;-74
2021/07/08 13:53:32;;;;;;;3.38;1.98;;;;;;;;;;4987272;28;20118;-74
2021/07/08 13:55:57;;;;;;;2.95;1.70;;;;;;;;;;4977912;28;20062;-73
2021/07/08 13:58:23;;;;;;;3.25;1.83;;;;;;;;;;4985022;28;20062;-73
2021/07/08 14:00:48;;;;;;;2.13;1.63;;;;;;;;;;4986384;28;20037;-75
2021/07/08 14:03:14;;;;;;;3.38;1.52;;;;;;;;;;4987018;28;20026;-73
2021/07/08 14:05:40;;;;;;;10.32;2.10;;;;;;;;;;4985423;28;20572;-75
2021/07/08 14:08:06;;;;;;;5.32;1.80;;;;;;;;;;4949285;28;20026;-74
2021/07/08 14:10:31;;;;;;;5.70;1.77;;;;;;;;;;4982474;28;20038;-74
2021/07/08 14:12:56;;;;;;;4.40;2.10;;;;;;;;;;4988721;28;20038;-74
2021/07/08 14:15:22;;;;;;;2.97;1.80;;;;;;;;;;4984363;28;20062;-75
2021/07/08 14:17:47;;;;;;;6.03;2.33;;;;;;;;;;4983182;28;20038;-74
2021/07/08 14:20:13;;;;;;;2.95;1.90;;;;;;;;;;4985861;28;20041;-74
2021/07/08 14:22:38;;;;;;;3.55;1.90;;;;;;;;;;4983592;28;20038;-74
2021/07/08 14:25:05;;;;;;;4.88;2.10;;;;;;;;;;4980078;28;21225;-73
2021/07/08 14:27:30;;;;;;;4.13;2.00;;;;;;;;;;4988002;28;20456;-73
2021/07/08 14:29:56;;;;;;;5.80;1.80;;;;;;;;;;4985192;28;20121;-74
2021/07/08 14:32:21;;;;;;;4.10;1.98;;;;;;;;;;4985822;28;20038;-73
2021/07/08 14:34:47;;;;;;;2.92;1.63;;;;;;;;;;4963755;28;20445;-76
2021/07/08 14:37:12;;;;;;;2.25;1.80;;;;;;;;;;4980174;28;20388;-73
2021/07/08 14:39:37;;;;;;;1.75;1.45;;;;;;;;;;4985328;28;20129;-73
2021/07/08 14:42:10;;;;;;;2.13;1.50;;;;;;;;;;4963286;28;20042;-74
2021/07/08 14:44:41;;;;;;;2.80;1.60;;;;;;;;;;4979521;28;20404;-74
2021/07/08 14:47:07;;;;;;;2.40;1.17;;;;;;;;;;4988593;28;20065;-74
2021/07/08 14:49:33;;;;;;;3.13;1.50;;;;;;;;;;4971572;28;20437;-74